Time;durP1;ratioP1;P1;durP2;ratioP2;P2;SDS_P1;SDS_P2;PMS_P1;PMS_P2;Temp;Humidity;BMP_temperature;BMP_pressure;BME280_temperature;BME280_humidity;BME280_pressure;Samples;Min_cycle;Max_cycle;Signal;HPM_P1;HPM_P2
2020/12/21 00:01:44;;;;;;;14.30;3.00;;;7.00;89.20;;;;;;5091399;28;20043;-70
2020/12/21 00:04:10;;;;;;;9.55;2.70;;;6.90;89.30;;;;;;5093915;28;20047;-70
2020/12/21 00:06:35;;;;;;;15.77;3.38;;;6.90;89.30;;;;;;5091756;28;20413;-70
2020/12/21 00:09:02;;;;;;;13.30;3.33;;;6.90;89.40;;;;;;5090486;28;20090;-70
2020/12/21 00:11:39;;;;;;;12.82;3.28;;;6.80;89.50;;;;;;5089951;28;20036;-70
2020/12/21 00:14:05;;;;;;;11.77;3.60;;;6.80;89.70;;;;;;5094216;28;20035;-70
2020/12/21 00:16:45;;;;;;;16.20;3.85;;;6.70;89.70;;;;;;5090993;28;20039;-70
2020/12/21 00:19:12;;;;;;;10.93;2.83;;;6.70;89.90;;;;;;5091649;28;20482;-70
2020/12/21 00:21:41;;;;;;;9.75;3.72;;;6.60;90.00;;;;;;5093280;28;20047;-70
2020/12/21 00:24:07;;;;;;;11.70;4.25;;;6.60;90.00;;;;;;5091801;28;20032;-70
2020/12/21 00:26:33;;;;;;;10.90;3.15;;;6.60;90.00;;;;;;5091160;28;20040;-70
2020/12/21 00:28:59;;;;;;;13.27;4.75;;;6.60;90.10;;;;;;5090785;28;20040;-70
2020/12/21 00:31:31;;;;;;;11.35;2.65;;;6.60;90.20;;;;;;5089476;28;20063;-70
2020/12/21 00:33:59;;;;;;;12.43;3.08;;;6.60;90.10;;;;;;5093002;28;20044;-70
2020/12/21 00:36:25;;;;;;;13.18;3.50;;;6.60;90.20;;;;;;5090836;28;20035;-70
2020/12/21 00:38:51;;;;;;;8.00;3.30;;;6.60;90.20;;;;;;5090298;28;20055;-70
2020/12/21 00:41:20;;;;;;;12.02;3.25;;;6.60;90.20;;;;;;5085880;28;20485;-70
2020/12/21 00:43:49;;;;;;;14.40;3.38;;;6.60;90.20;;;;;;5081959;28;20704;-70
2020/12/21 00:46:20;;;;;;;10.38;3.45;;;6.60;90.20;;;;;;5083285;28;20032;-70
2020/12/21 00:48:47;;;;;;;10.23;3.17;;;6.60;90.20;;;;;;5083917;28;20035;-70
2020/12/21 00:51:14;;;;;;;10.48;2.83;;;6.60;90.10;;;;;;5082247;28;20803;-70
2020/12/21 00:53:39;;;;;;;14.85;3.47;;;6.60;90.20;;;;;;5083813;28;20508;-70
2020/12/21 00:56:06;;;;;;;13.65;3.03;;;6.60;90.10;;;;;;5082710;28;20037;-70
2020/12/21 00:58:33;;;;;;;13.15;3.33;;;6.60;90.10;;;;;;5083981;28;20036;-70
2020/12/21 01:01:00;;;;;;;8.57;2.90;;;6.60;90.20;;;;;;5081725;28;20043;-70
2020/12/21 01:03:26;;;;;;;11.23;3.53;;;6.50;90.20;;;;;;5082714;28;20024;-70
2020/12/21 01:05:54;;;;;;;8.95;2.80;;;6.50;90.10;;;;;;5081312;28;20542;-70
2020/12/21 01:08:20;;;;;;;13.75;2.95;;;6.50;90.10;;;;;;5082007;28;20032;-70
2020/12/21 01:10:46;;;;;;;13.93;3.30;;;6.50;90.20;;;;;;5083997;28;20097;-70
2020/12/21 01:13:12;;;;;;;9.75;3.33;;;6.50;90.20;;;;;;5083145;28;20058;-70
2020/12/21 01:15:38;;;;;;;8.93;2.85;;;6.40;90.20;;;;;;5081945;28;20540;-70
2020/12/21 01:18:03;;;;;;;11.40;3.15;;;6.40;90.10;;;;;;5083723;28;20041;-70
2020/12/21 01:20:30;;;;;;;11.27;2.85;;;6.40;90.10;;;;;;5082769;28;20044;-70
2020/12/21 01:22:55;;;;;;;11.93;2.90;;;6.40;90.20;;;;;;5083671;28;20082;-70
2020/12/21 01:25:21;;;;;;;14.27;3.25;;;6.40;90.20;;;;;;5081736;28;20556;-70
2020/12/21 01:27:47;;;;;;;15.27;3.10;;;6.30;90.20;;;;;;5082332;28;20042;-70
2020/12/21 01:30:12;;;;;;;13.13;3.67;;;6.30;90.20;;;;;;5082426;28;20033;-70
2020/12/21 01:32:38;;;;;;;16.92;2.92;;;6.30;90.30;;;;;;5084120;28;21001;-70
2020/12/21 01:35:04;;;;;;;9.55;2.72;;;6.30;90.30;;;;;;5080127;28;20504;-70
2020/12/21 01:37:31;;;;;;;15.90;4.18;;;6.20;90.30;;;;;;5083116;28;20453;-70
2020/12/21 01:39:56;;;;;;;9.68;3.28;;;6.20;90.40;;;;;;5084218;28;20040;-70
2020/12/21 01:42:22;;;;;;;9.15;3.08;;;6.10;90.40;;;;;;5082880;28;20040;-70
2020/12/21 01:44:49;;;;;;;7.05;2.65;;;6.10;90.50;;;;;;5081261;28;20101;-70
2020/12/21 01:47:17;;;;;;;8.65;2.78;;;6.10;90.40;;;;;;5081981;28;20044;-70
2020/12/21 01:49:44;;;;;;;9.20;2.70;;;6.10;90.50;;;;;;5082085;28;20032;-70
2020/12/21 01:52:11;;;;;;;9.20;2.60;;;6.00;90.60;;;;;;5081972;28;20491;-70
2020/12/21 01:54:36;;;;;;;8.48;2.53;;;6.00;90.60;;;;;;5081186;28;20036;-70
2020/12/21 01:57:03;;;;;;;6.28;2.58;;;6.00;90.50;;;;;;5081989;28;20042;-70
2020/12/21 01:59:29;;;;;;;11.75;2.88;;;6.00;90.60;;;;;;5087777;28;20032;-70
2020/12/21 02:01:55;;;;;;;9.10;2.92;;;5.90;90.60;;;;;;5085221;28;20046;-70
2020/12/21 02:04:21;;;;;;;9.18;2.40;;;5.90;90.70;;;;;;5087975;28;20386;-70
2020/12/21 02:06:48;;;;;;;12.00;3.50;;;5.90;90.70;;;;;;5085717;28;20362;-70
2020/12/21 02:09:14;;;;;;;12.52;3.30;;;5.90;90.70;;;;;;5082854;28;20050;-70
2020/12/21 02:11:41;;;;;;;9.52;2.97;;;5.80;90.60;;;;;;5082528;28;20054;-70
2020/12/21 02:14:07;;;;;;;8.70;2.95;;;5.80;90.70;;;;;;5082646;28;20486;-70
2020/12/21 02:16:34;;;;;;;13.18;3.17;;;5.80;90.70;;;;;;5083612;28;20042;-70
2020/12/21 02:19:00;;;;;;;8.63;2.95;;;5.80;90.80;;;;;;5086310;28;20035;-70
2020/12/21 02:21:26;;;;;;;11.82;3.33;;;5.70;90.80;;;;;;5088843;28;20040;-70
2020/12/21 02:23:52;;;;;;;6.63;2.50;;;5.70;90.90;;;;;;5090098;28;20038;-70
2020/12/21 02:26:17;;;;;;;6.22;2.75;;;5.70;90.90;;;;;;5080013;28;20054;-70
2020/12/21 02:28:43;;;;;;;13.30;3.15;;;5.70;90.90;;;;;;5081370;28;20085;-70
2020/12/21 02:31:09;;;;;;;10.85;3.80;;;5.70;90.90;;;;;;5081861;28;20052;-70
2020/12/21 02:33:35;;;;;;;10.43;3.33;;;5.70;91.00;;;;;;5081321;28;20663;-70
2020/12/21 02:36:00;;;;;;;18.52;3.80;;;5.70;91.10;;;;;;5078894;28;20439;-70
2020/12/21 02:38:26;;;;;;;10.80;3.50;;;5.70;91.30;;;;;;5083453;28;20055;-70
2020/12/21 02:40:52;;;;;;;11.43;3.80;;;5.70;91.20;;;;;;5081032;28;20044;-70
2020/12/21 02:43:21;;;;;;;13.25;4.15;;;5.70;91.30;;;;;;5083880;28;20489;-70
2020/12/21 02:45:48;;;;;;;11.52;4.28;;;5.70;91.40;;;;;;5085692;28;20393;-70
2020/12/21 02:48:13;;;;;;;13.98;4.00;;;5.70;91.30;;;;;;5081445;28;20520;-70
2020/12/21 02:50:40;;;;;;;11.57;3.70;;;5.70;91.30;;;;;;5080947;28;20075;-70
2020/12/21 02:53:06;;;;;;;13.85;3.92;;;5.70;91.30;;;;;;5080541;28;20117;-70
2020/12/21 02:55:31;;;;;;;12.07;3.83;;;5.70;91.30;;;;;;5084109;28;20069;-70
2020/12/21 02:57:57;;;;;;;15.23;4.03;;;5.70;91.20;;;;;;5088744;28;20036;-70
2020/12/21 03:00:23;;;;;;;12.35;3.85;;;5.70;91.30;;;;;;5089092;28;20478;-70
2020/12/21 03:02:48;;;;;;;12.32;4.03;;;5.70;91.40;;;;;;5086348;28;20421;-70
2020/12/21 03:05:14;;;;;;;19.25;4.22;;;5.70;91.20;;;;;;5091031;28;20115;-70
2020/12/21 03:07:40;;;;;;;11.93;4.22;;;5.60;91.10;;;;;;5091615;28;20040;-70
2020/12/21 03:10:05;;;;;;;15.68;4.13;;;5.60;91.20;;;;;;5095231;28;20043;-70
2020/12/21 03:12:31;;;;;;;13.25;4.40;;;5.60;91.20;;;;;;5095338;28;20038;-70
2020/12/21 03:14:57;;;;;;;12.85;4.20;;;5.50;91.40;;;;;;5092430;28;20106;-70
2020/12/21 03:17:22;;;;;;;15.13;5.13;;;5.50;91.30;;;;;;5085185;28;20068;-70
2020/12/21 03:19:48;;;;;;;15.57;4.30;;;5.50;91.40;;;;;;5086621;28;20485;-70
2020/12/21 03:22:14;;;;;;;11.50;3.65;;;5.40;91.40;;;;;;5088622;28;20039;-70
2020/12/21 03:24:40;;;;;;;15.70;4.45;;;5.40;91.40;;;;;;5089948;28;20043;-70
2020/12/21 03:27:05;;;;;;;14.05;4.35;;;5.40;91.40;;;;;;5094731;28;20413;-70
2020/12/21 03:29:31;;;;;;;14.55;4.00;;;5.40;91.50;;;;;;5094384;28;20107;-70
2020/12/21 03:31:57;;;;;;;14.13;4.60;;;5.40;91.60;;;;;;5085977;28;20032;-70
2020/12/21 03:34:22;;;;;;;12.63;4.15;;;5.40;91.50;;;;;;5091696;28;20045;-70
2020/12/21 03:36:48;;;;;;;15.57;5.18;;;5.40;91.50;;;;;;5090164;28;20042;-70
2020/12/21 03:39:13;;;;;;;12.57;4.10;;;5.30;91.50;;;;;;5091199;28;20036;-70
2020/12/21 03:41:39;;;;;;;15.05;4.03;;;5.30;91.50;;;;;;5124578;27;20040;-70
2020/12/21 03:44:05;;;;;;;16.30;4.97;;;5.30;91.60;;;;;;5091474;28;20048;-70
2020/12/21 03:46:31;;;;;;;12.95;4.40;;;5.30;91.70;;;;;;5092968;28;20089;-70
2020/12/21 03:48:56;;;;;;;19.48;4.57;;;5.20;91.80;;;;;;5091662;28;20036;-70
2020/12/21 03:51:22;;;;;;;12.40;4.93;;;5.20;91.80;;;;;;5091606;28;20068;-70
2020/12/21 03:53:48;;;;;;;14.40;5.07;;;5.20;91.90;;;;;;5091388;28;20040;-70
2020/12/21 03:56:13;;;;;;;15.68;4.50;;;5.20;92.00;;;;;;5090744;28;20405;-70
2020/12/21 03:58:39;;;;;;;23.90;6.32;;;5.20;92.00;;;;;;5095506;28;20556;-70
2020/12/21 04:01:05;;;;;;;15.60;4.70;;;5.20;92.00;;;;;;5091440;28;20040;-70
2020/12/21 04:03:30;;;;;;;13.35;4.70;;;5.20;91.80;;;;;;5095611;28;20444;-70
2020/12/21 04:05:57;;;;;;;16.70;5.22;;;5.20;91.80;;;;;;5087365;28;20122;-70
2020/12/21 04:08:23;;;;;;;15.15;5.22;;;5.20;91.90;;;;;;5090872;28;20111;-70
2020/12/21 04:10:49;;;;;;;16.00;5.22;;;5.10;92.10;;;;;;5094903;28;20039;-70
2020/12/21 04:13:14;;;;;;;15.90;4.97;;;5.10;91.80;;;;;;5091239;28;20512;-70
2020/12/21 04:15:40;;;;;;;20.83;4.93;;;5.10;91.80;;;;;;5094046;28;20055;-70
2020/12/21 04:18:06;;;;;;;15.48;5.18;;;5.10;91.90;;;;;;5092586;28;20031;-70
2020/12/21 04:20:32;;;;;;;18.38;4.95;;;5.10;92.00;;;;;;5091716;28;20055;-70
2020/12/21 04:22:59;;;;;;;17.10;5.60;;;5.10;92.30;;;;;;5094752;28;20054;-70
2020/12/21 04:25:25;;;;;;;16.58;5.32;;;5.10;92.00;;;;;;5090725;28;20067;-70
2020/12/21 04:27:51;;;;;;;17.15;5.40;;;5.00;92.00;;;;;;5090320;28;20045;-70
2020/12/21 04:30:17;;;;;;;19.33;5.43;;;5.00;92.10;;;;;;5091254;28;20065;-70
2020/12/21 04:32:43;;;;;;;22.80;5.60;;;5.00;92.10;;;;;;5091990;28;20052;-70
2020/12/21 04:35:08;;;;;;;14.38;5.50;;;5.00;92.20;;;;;;5088654;28;20127;-70
2020/12/21 04:37:34;;;;;;;19.17;5.80;;;5.10;92.20;;;;;;5090448;28;20114;-69
2020/12/21 04:40:00;;;;;;;16.33;6.28;;;5.10;92.50;;;;;;5089190;28;20034;-69
2020/12/21 04:42:26;;;;;;;16.05;5.22;;;5.10;92.40;;;;;;5092988;28;20092;-69
2020/12/21 04:44:52;;;;;;;16.60;5.07;;;5.10;92.30;;;;;;5090771;28;20122;-69
2020/12/21 04:47:21;;;;;;;15.70;4.97;;;5.10;92.30;;;;;;5091512;28;20036;-69
2020/12/21 04:49:47;;;;;;;15.98;5.00;;;5.10;92.20;;;;;;5090588;28;20436;-69
2020/12/21 04:52:13;;;;;;;18.08;5.00;;;5.10;92.20;;;;;;5090280;28;20098;-69
2020/12/21 04:54:43;;;;;;;16.40;5.63;;;5.10;92.40;;;;;;5092797;28;20035;-69
2020/12/21 04:57:08;;;;;;;23.50;5.45;;;5.10;92.50;;;;;;5092188;28;20058;-69
2020/12/21 04:59:34;;;;;;;14.38;5.18;;;5.10;92.50;;;;;;5093041;28;20036;-69
2020/12/21 05:02:03;;;;;;;15.60;5.20;;;5.20;92.50;;;;;;5091189;28;20036;-69
2020/12/21 05:04:29;;;;;;;16.55;5.40;;;5.20;92.50;;;;;;5088876;28;20040;-69
2020/12/21 05:06:58;;;;;;;17.15;4.75;;;5.20;92.50;;;;;;5092783;28;20081;-69
2020/12/21 05:09:25;;;;;;;13.70;5.60;;;5.20;92.40;;;;;;5091978;28;20379;-69
2020/12/21 05:12:03;;;;;;;14.20;6.15;;;5.30;92.70;;;;;;5093514;28;20044;-69
2020/12/21 05:14:33;;;;;;;18.70;5.95;;;5.30;92.60;;;;;;5085280;28;20508;-69
2020/12/21 05:17:13;;;;;;;16.67;5.68;;;5.40;92.50;;;;;;5090205;28;20040;-69
2020/12/21 05:19:39;;;;;;;16.27;4.80;;;5.40;92.40;;;;;;5089987;28;20054;-69
2020/12/21 05:22:15;;;;;;;14.95;4.47;;;5.40;92.40;;;;;;5088234;28;20151;-69
2020/12/21 05:24:42;;;;;;;17.83;5.60;;;5.40;92.30;;;;;;5091845;28;20055;-69
2020/12/21 05:27:16;;;;;;;15.32;4.53;;;5.40;92.30;;;;;;5090937;28;20119;-69
2020/12/21 05:29:50;;;;;;;11.68;4.47;;;5.40;92.40;;;;;;5090499;28;20040;-69
2020/12/21 05:32:19;;;;;;;14.60;5.15;;;5.50;92.30;;;;;;5086488;28;20043;-69
2020/12/21 05:34:45;;;;;;;16.05;5.15;;;5.50;92.40;;;;;;5090196;28;20035;-69
2020/12/21 05:37:19;;;;;;;13.50;5.05;;;5.50;92.20;;;;;;5089274;28;20445;-69
2020/12/21 05:39:56;;;;;;;15.95;4.88;;;5.50;92.30;;;;;;5089476;28;20119;-69
2020/12/21 05:42:23;;;;;;;18.27;5.00;;;5.50;92.30;;;;;;5091050;28;20032;-69
2020/12/21 05:44:59;;;;;;;15.48;4.80;;;5.50;92.30;;;;;;5088827;28;20036;-69
2020/12/21 05:47:24;;;;;;;;;;;5.50;92.30;;;;;;5090697;28;20043;-69
2020/12/21 05:50:02;;;;;;;14.43;4.20;;;5.50;92.40;;;;;;5090105;28;20274;-69
2020/12/21 05:52:34;;;;;;;12.05;4.25;;;5.60;92.30;;;;;;5086583;28;20405;-69
2020/12/21 05:55:03;;;;;;;18.35;5.32;;;5.60;92.40;;;;;;5091236;28;20044;-69
2020/12/21 05:57:30;;;;;;;14.50;4.20;;;5.60;92.40;;;;;;5089757;28;20040;-69
2020/12/21 05:59:58;;;;;;;13.45;4.97;;;5.70;92.40;;;;;;5090615;28;20047;-69
2020/12/21 06:02:25;;;;;;;14.38;4.40;;;5.60;92.40;;;;;;5090822;28;20047;-69
2020/12/21 06:05:03;;;;;;;13.50;5.05;;;5.70;92.30;;;;;;5090057;28;20032;-69
2020/12/21 06:07:31;;;;;;;14.07;4.22;;;5.70;92.30;;;;;;5088778;28;20050;-69
2020/12/21 06:09:59;;;;;;;19.75;4.63;;;5.70;92.30;;;;;;5086203;28;20424;-69
2020/12/21 06:12:27;;;;;;;17.20;4.32;;;5.70;92.20;;;;;;5088955;28;20500;-69
2020/12/21 06:15:00;;;;;;;11.85;3.95;;;5.70;92.20;;;;;;5089676;28;20040;-69
2020/12/21 06:17:25;;;;;;;16.90;4.50;;;5.70;92.30;;;;;;5090917;28;20459;-69
2020/12/21 06:20:04;;;;;;;18.05;4.35;;;5.70;92.30;;;;;;5089559;28;20056;-69
2020/12/21 06:22:30;;;;;;;15.30;4.63;;;5.80;92.40;;;;;;5087285;28;20039;-69
2020/12/21 06:24:56;;;;;;;14.13;4.82;;;5.80;92.40;;;;;;5092220;28;20032;-69
2020/12/21 06:27:21;;;;;;;14.60;4.10;;;5.80;92.50;;;;;;5089341;28;20047;-69
2020/12/21 06:29:58;;;;;;;12.05;3.95;;;5.80;92.50;;;;;;5087360;28;20401;-69
2020/12/21 06:32:31;;;;;;;12.48;4.60;;;5.90;92.40;;;;;;5086894;28;20446;-69
2020/12/21 06:34:56;;;;;;;13.75;5.50;;;5.90;92.40;;;;;;5091997;28;20070;-69
2020/12/21 06:37:22;;;;;;;8.45;3.78;;;5.90;92.40;;;;;;5088997;28;20490;-69
2020/12/21 06:40:05;;;;;;;11.80;4.15;;;5.90;92.30;;;;;;5094528;28;20070;-69
2020/12/21 06:42:31;;;;;;;11.68;5.15;;;6.00;92.30;;;;;;5089091;28;20115;-69
2020/12/21 06:44:57;;;;;;;10.38;4.00;;;6.00;92.30;;;;;;5087175;28;20031;-69
2020/12/21 06:47:27;;;;;;;11.98;4.45;;;6.00;92.30;;;;;;5090315;28;20639;-69
2020/12/21 06:49:53;;;;;;;13.45;4.20;;;6.10;92.20;;;;;;5087188;28;20044;-69
2020/12/21 06:52:19;;;;;;;13.00;3.90;;;6.10;92.10;;;;;;5088132;28;20427;-69
2020/12/21 06:54:49;;;;;;;17.50;3.80;;;6.10;92.10;;;;;;5090237;28;20040;-69
2020/12/21 06:57:14;;;;;;;10.13;4.43;;;6.00;92.00;;;;;;5088086;28;20046;-69
2020/12/21 06:59:40;;;;;;;13.75;3.92;;;6.00;92.00;;;;;;5086974;28;20028;-69
2020/12/21 07:02:06;;;;;;;10.57;4.00;;;6.00;92.00;;;;;;5087176;28;20047;-69
2020/12/21 07:04:33;;;;;;;13.32;4.20;;;6.00;91.90;;;;;;5118532;27;20494;-69
2020/12/21 07:07:03;;;;;;;14.75;4.45;;;6.00;91.90;;;;;;5088595;28;20397;-69
2020/12/21 07:09:30;;;;;;;9.52;4.35;;;5.90;92.00;;;;;;5081822;28;20116;-69
2020/12/21 07:12:00;;;;;;;14.50;4.15;;;5.90;92.00;;;;;;5080453;28;20044;-69
2020/12/21 07:14:28;;;;;;;13.32;4.30;;;5.90;92.00;;;;;;5083706;28;20037;-69
2020/12/21 07:17:17;;;;;;;18.33;5.40;;;5.90;92.00;;;;;;5082075;28;20039;-69
2020/12/21 07:19:43;;;;;;;9.65;4.45;;;5.90;92.10;;;;;;5086522;28;20093;-69
2020/12/21 07:22:10;;;;;;;17.50;4.25;;;5.90;92.00;;;;;;5084656;28;20486;-69
2020/12/21 07:24:38;;;;;;;14.35;5.20;;;5.90;92.00;;;;;;5089028;28;20039;-69
2020/12/21 07:27:04;;;;;;;11.30;4.55;;;5.80;92.10;;;;;;5083170;28;20041;-69
2020/12/21 07:29:34;;;;;;;10.15;3.90;;;5.80;92.20;;;;;;5079935;28;20062;-69
2020/12/21 07:32:00;;;;;;;10.50;4.20;;;5.80;92.20;;;;;;5078622;28;20119;-69
2020/12/21 07:34:27;;;;;;;11.93;4.10;;;5.80;92.20;;;;;;5069178;28;20108;-69
2020/12/21 07:36:53;;;;;;;13.43;4.25;;;5.80;92.20;;;;;;5082898;28;20036;-69
2020/12/21 07:39:19;;;;;;;13.27;4.60;;;5.80;92.20;;;;;;5088707;28;20036;-69
2020/12/21 07:41:47;;;;;;;13.45;5.07;;;5.70;92.20;;;;;;5075966;28;20554;-69
2020/12/21 07:44:20;;;;;;;14.07;4.30;;;5.80;92.20;;;;;;5088145;28;20094;-69
2020/12/21 07:47:09;;;;;;;12.48;4.10;;;5.70;92.20;;;;;;5087391;28;20143;-69
2020/12/21 07:49:37;;;;;;;11.73;4.22;;;5.70;92.20;;;;;;5085314;28;20608;-69
2020/12/21 07:52:07;;;;;;;15.45;6.07;;;5.70;92.10;;;;;;5086589;28;20036;-69
2020/12/21 07:54:43;;;;;;;11.38;3.63;;;5.70;92.20;;;;;;5091963;28;20115;-69
2020/12/21 07:57:11;;;;;;;10.77;3.63;;;5.60;92.10;;;;;;5093593;28;20119;-69
2020/12/21 07:59:36;;;;;;;11.05;3.35;;;5.70;92.20;;;;;;5095602;28;20110;-69
2020/12/21 08:02:05;;;;;;;9.38;3.50;;;5.60;92.10;;;;;;5087103;28;20047;-69
2020/12/21 08:04:32;;;;;;;14.38;3.58;;;5.60;92.10;;;;;;5093971;28;20042;-70
2020/12/21 08:07:27;;;;;;;12.55;3.75;;;5.60;92.20;;;;;;5081623;28;20043;-69
2020/12/21 08:09:53;;;;;;;11.23;3.17;;;5.60;92.20;;;;;;5090791;28;20054;-69
2020/12/21 08:12:19;;;;;;;12.02;3.97;;;5.60;92.20;;;;;;5089317;28;20036;-69
2020/12/21 08:14:45;;;;;;;12.35;3.33;;;5.60;92.20;;;;;;5090644;28;20040;-69
2020/12/21 08:17:13;;;;;;;9.18;2.92;;;5.60;92.20;;;;;;5088237;28;20119;-69
2020/12/21 08:19:48;;;;;;;9.70;3.28;;;5.60;92.20;;;;;;5078938;28;20058;-69
2020/12/21 08:22:19;;;;;;;13.48;3.20;;;5.70;92.20;;;;;;5089702;28;20169;-69
2020/12/21 08:24:45;;;;;;;15.35;3.28;;;5.70;92.20;;;;;;5084756;28;20443;-69
2020/12/21 08:27:19;;;;;;;11.77;4.55;;;5.70;92.10;;;;;;5083814;28;20405;-69
2020/12/21 08:29:44;;;;;;;10.05;2.88;;;5.60;92.10;;;;;;5081034;28;20051;-69
2020/12/21 08:32:10;;;;;;;10.25;2.88;;;5.60;92.00;;;;;;5078944;28;20390;-69
2020/12/21 08:34:36;;;;;;;11.20;3.05;;;5.70;92.10;;;;;;5081844;28;20032;-69
2020/12/21 08:37:01;;;;;;;15.35;3.78;;;5.70;92.00;;;;;;5086366;28;20134;-69
2020/12/21 08:39:27;;;;;;;14.65;3.67;;;5.70;92.00;;;;;;5079306;28;20036;-69
2020/12/21 08:41:58;;;;;;;11.30;3.72;;;5.70;92.00;;;;;;5086871;28;20114;-69
2020/12/21 08:44:26;;;;;;;11.63;3.65;;;5.70;92.00;;;;;;5085420;28;20088;-69
2020/12/21 08:47:02;;;;;;;12.32;2.88;;;5.70;92.00;;;;;;5082518;28;20039;-69
2020/12/21 08:49:28;;;;;;;10.63;3.10;;;5.80;92.00;;;;;;5087609;28;20038;-69
2020/12/21 08:52:04;;;;;;;10.20;4.32;;;5.80;92.00;;;;;;5084805;28;20067;-69
2020/12/21 08:54:30;;;;;;;9.75;2.80;;;5.80;92.00;;;;;;5087531;28;20036;-69
2020/12/21 08:56:59;;;;;;;11.68;3.15;;;5.80;92.00;;;;;;5079467;28;20351;-69
2020/12/21 08:59:25;;;;;;;12.15;3.10;;;5.90;92.10;;;;;;5085327;28;20040;-69
2020/12/21 09:01:51;;;;;;;8.93;2.90;;;5.90;92.10;;;;;;5086709;28;20040;-69
2020/12/21 09:04:16;;;;;;;10.48;2.83;;;6.00;92.10;;;;;;5090862;28;20054;-69
2020/12/21 09:06:42;;;;;;;10.10;3.22;;;6.10;92.10;;;;;;5085501;28;20089;-69
2020/12/21 09:09:09;;;;;;;9.30;2.53;;;6.10;92.00;;;;;;5089533;28;20043;-69
2020/12/21 09:11:35;;;;;;;13.80;2.83;;;6.20;92.00;;;;;;5086880;28;20032;-69
2020/12/21 09:14:01;;;;;;;8.07;2.78;;;6.30;91.90;;;;;;5091083;27;20041;-69
2020/12/21 09:16:28;;;;;;;8.50;2.55;;;6.40;91.90;;;;;;5088019;28;20040;-69
2020/12/21 09:18:55;;;;;;;11.13;2.67;;;6.50;91.70;;;;;;5093114;28;20036;-69
2020/12/21 09:21:25;;;;;;;12.57;2.25;;;6.50;91.60;;;;;;5089638;28;20073;-69
2020/12/21 09:23:54;;;;;;;10.23;2.45;;;6.60;91.50;;;;;;5086066;28;20121;-69
2020/12/21 09:26:20;;;;;;;13.30;2.10;;;6.70;91.40;;;;;;5082160;28;20101;-69
2020/12/21 09:28:48;;;;;;;8.20;1.85;;;6.80;91.10;;;;;;5078910;28;20055;-69
2020/12/21 09:31:14;;;;;;;15.10;2.53;;;6.90;91.10;;;;;;5085065;28;20040;-69
2020/12/21 09:42:24;;;;;;;6.88;1.63;;;7.10;90.30;;;;;;5101962;27;20789;-69
2020/12/21 09:44:51;;;;;;;7.32;1.50;;;7.10;90.40;;;;;;5097154;28;20036;-69
2020/12/21 09:47:17;;;;;;;6.38;1.27;;;7.10;90.30;;;;;;5099481;28;20071;-69
2020/12/21 09:49:43;;;;;;;9.48;1.90;;;7.10;90.30;;;;;;5098223;28;20040;-69
2020/12/21 09:52:09;;;;;;;7.38;1.50;;;7.10;90.20;;;;;;5097091;28;20043;-69
2020/12/21 09:54:35;;;;;;;7.47;1.67;;;7.10;90.30;;;;;;5100540;28;20033;-69
2020/12/21 09:57:01;;;;;;;9.80;1.85;;;7.10;90.30;;;;;;5092507;28;20391;-69
2020/12/21 09:59:27;;;;;;;9.18;1.70;;;7.00;90.30;;;;;;5097878;28;20032;-69
2020/12/21 10:01:53;;;;;;;4.55;1.08;;;7.10;90.20;;;;;;5088567;28;20462;-69
2020/12/21 10:04:19;;;;;;;8.02;1.85;;;7.00;90.30;;;;;;5104697;28;20047;-69
2020/12/21 10:06:49;;;;;;;8.00;1.33;;;7.10;90.10;;;;;;5108815;27;20085;-69
2020/12/21 10:09:15;;;;;;;10.02;1.38;;;7.10;90.10;;;;;;5101706;28;20070;-69
2020/12/21 10:11:41;;;;;;;7.18;1.40;;;7.10;90.10;;;;;;5107215;27;20039;-69
2020/12/21 10:14:07;;;;;;;6.93;1.10;;;7.10;90.10;;;;;;5103420;28;20525;-70
2020/12/21 10:16:33;;;;;;;8.40;1.58;;;7.10;90.10;;;;;;5110282;28;20039;-69
2020/12/21 10:18:59;;;;;;;6.22;1.20;;;7.10;90.00;;;;;;5106704;28;20055;-69
2020/12/21 10:21:25;;;;;;;4.05;1.20;;;7.20;90.00;;;;;;5095977;28;20036;-69
2020/12/21 10:23:50;;;;;;;5.07;1.20;;;7.20;89.70;;;;;;5088712;28;20076;-69
2020/12/21 10:26:16;;;;;;;6.50;1.30;;;7.20;90.00;;;;;;5098880;28;20039;-69
2020/12/21 10:28:42;;;;;;;8.13;1.50;;;7.20;90.10;;;;;;5089588;28;20093;-69
2020/12/21 10:31:07;;;;;;;5.53;1.20;;;7.10;90.00;;;;;;5097153;28;20540;-69
2020/12/21 10:33:33;;;;;;;6.85;1.48;;;7.20;90.40;;;;;;5085422;28;20051;-69
2020/12/21 10:35:59;;;;;;;5.68;1.50;;;7.20;89.90;;;;;;5074973;28;20479;-69
2020/12/21 10:38:24;;;;;;;7.68;1.58;;;7.20;89.90;;;;;;5087796;28;20068;-69
2020/12/21 10:40:50;;;;;;;7.22;1.58;;;7.20;89.80;;;;;;5092460;28;20063;-70
2020/12/21 10:43:16;;;;;;;7.30;1.60;;;7.20;89.80;;;;;;5081206;28;20109;-70
2020/12/21 10:45:42;;;;;;;9.05;1.73;;;7.30;89.70;;;;;;5090087;28;20028;-69
2020/12/21 10:48:08;;;;;;;7.07;1.70;;;7.30;89.50;;;;;;5093054;28;20057;-69
2020/12/21 10:50:33;;;;;;;6.63;1.73;;;7.30;89.50;;;;;;5080694;28;20477;-69
2020/12/21 10:52:59;;;;;;;8.43;1.90;;;7.30;89.30;;;;;;5085677;28;20039;-69
2020/12/21 10:55:24;;;;;;;8.40;2.03;;;7.40;88.90;;;;;;5076533;28;20454;-70
2020/12/21 10:57:50;;;;;;;10.38;1.75;;;7.40;89.10;;;;;;5085251;28;20111;-69
2020/12/21 11:00:16;;;;;;;14.27;2.55;;;7.40;89.60;;;;;;5078322;28;20051;-69
2020/12/21 11:02:41;;;;;;;6.43;1.80;;;7.40;89.00;;;;;;5079087;28;20083;-69
2020/12/21 11:05:07;;;;;;;6.68;2.15;;;7.40;89.00;;;;;;5075458;28;20074;-70
2020/12/21 11:07:33;;;;;;;7.72;1.40;;;7.40;88.80;;;;;;5080629;28;20044;-69
2020/12/21 11:09:58;;;;;;;8.95;1.88;;;7.50;88.80;;;;;;5079106;28;20470;-69
2020/12/21 11:12:24;;;;;;;8.00;2.50;;;7.40;88.80;;;;;;5067539;28;20085;-69
2020/12/21 11:14:50;;;;;;;7.00;1.55;;;7.40;89.00;;;;;;5068059;28;20119;-70
2020/12/21 11:17:17;;;;;;;8.70;1.90;;;7.50;89.60;;;;;;5071044;28;20111;-69
2020/12/21 11:19:45;;;;;;;9.20;2.03;;;7.50;89.30;;;;;;5072025;28;20413;-69
2020/12/21 11:22:11;;;;;;;7.15;2.35;;;7.50;89.80;;;;;;5078323;28;20157;-70
2020/12/21 11:24:37;;;;;;;8.95;2.30;;;7.50;90.00;;;;;;5079747;28;20170;-70
2020/12/21 11:27:02;;;;;;;12.30;2.53;;;7.50;89.90;;;;;;5089403;28;20028;-69
2020/12/21 11:29:28;;;;;;;6.80;2.22;;;7.50;90.10;;;;;;5091459;28;20032;-69
2020/12/21 11:31:53;;;;;;;8.52;2.28;;;7.50;90.10;;;;;;5086904;28;20531;-70
2020/12/21 11:34:19;;;;;;;8.60;1.77;;;7.50;90.10;;;;;;5084830;28;20154;-69
2020/12/21 11:36:45;;;;;;;8.30;2.25;;;7.60;90.10;;;;;;5078795;28;20049;-69
2020/12/21 11:39:12;;;;;;;7.20;1.83;;;7.70;90.20;;;;;;5083152;28;20048;-70
2020/12/21 11:41:38;;;;;;;8.80;2.50;;;7.60;90.10;;;;;;5089156;28;20067;-70
2020/12/21 11:44:04;;;;;;;8.77;1.90;;;7.60;89.60;;;;;;5088114;28;20486;-69
2020/12/21 11:46:31;;;;;;;10.23;2.00;;;7.70;89.80;;;;;;5087349;28;20040;-70
2020/12/21 11:48:57;;;;;;;9.45;2.30;;;7.70;89.30;;;;;;5084209;28;20089;-70
2020/12/21 11:51:24;;;;;;;6.85;2.22;;;7.70;89.50;;;;;;5078389;28;20040;-70
2020/12/21 11:53:49;;;;;;;8.57;2.47;;;7.80;89.50;;;;;;5078907;28;20111;-70
2020/12/21 11:56:17;;;;;;;10.07;2.80;;;7.80;89.30;;;;;;5077419;28;20387;-70
2020/12/21 11:58:42;;;;;;;10.45;2.55;;;7.80;89.30;;;;;;5075870;28;20382;-69
2020/12/21 12:01:08;;;;;;;10.90;3.15;;;7.80;89.30;;;;;;5076048;28;20102;-70
2020/12/21 12:03:34;;;;;;;7.43;2.40;;;7.90;89.10;;;;;;5085915;28;20044;-70
2020/12/21 12:06:00;;;;;;;5.45;2.83;;;7.90;89.10;;;;;;5087459;28;20062;-70
2020/12/21 12:08:27;;;;;;;7.10;1.80;;;7.90;89.30;;;;;;5086331;28;20036;-70
2020/12/21 12:10:52;;;;;;;8.20;2.42;;;7.90;88.70;;;;;;5082267;28;20063;-69
2020/12/21 12:13:18;;;;;;;7.90;2.20;;;7.90;89.10;;;;;;5081461;28;20044;-69
2020/12/21 12:15:43;;;;;;;7.53;2.10;;;7.90;89.20;;;;;;5079858;28;20052;-69
2020/12/21 12:18:09;;;;;;;7.47;2.58;;;7.90;89.00;;;;;;5079375;28;20043;-70
2020/12/21 12:20:35;;;;;;;7.93;2.42;;;7.90;89.00;;;;;;5082565;28;21732;-70
2020/12/21 12:23:01;;;;;;;7.97;2.13;;;7.90;88.90;;;;;;5081875;28;20040;-70
2020/12/21 12:25:26;;;;;;;11.70;2.05;;;7.90;89.10;;;;;;5082470;28;20379;-70
2020/12/21 12:27:52;;;;;;;10.23;2.38;;;7.90;89.10;;;;;;5078825;28;20486;-69
2020/12/21 12:30:18;;;;;;;8.02;2.30;;;7.90;89.20;;;;;;5079845;28;20589;-70
2020/12/21 12:32:43;;;;;;;6.97;2.08;;;8.00;89.10;;;;;;5081752;28;20040;-70
2020/12/21 12:35:09;;;;;;;9.82;2.60;;;8.00;89.50;;;;;;5080665;28;20027;-70
2020/12/21 12:37:35;;;;;;;7.13;2.35;;;8.00;89.70;;;;;;5081014;28;20077;-70
2020/12/21 12:40:00;;;;;;;10.32;3.03;;;8.00;89.90;;;;;;5086001;28;20032;-70
2020/12/21 12:42:27;;;;;;;7.40;2.33;;;8.00;90.00;;;;;;5087870;28;20045;-70
2020/12/21 12:44:52;;;;;;;11.60;2.63;;;8.00;89.80;;;;;;5086115;28;20444;-70
2020/12/21 12:47:19;;;;;;;12.52;2.78;;;8.00;90.00;;;;;;5081613;28;20056;-70
2020/12/21 12:49:44;;;;;;;14.25;3.67;;;8.00;90.00;;;;;;5089461;28;20032;-70
2020/12/21 12:52:10;;;;;;;14.35;3.10;;;8.00;90.10;;;;;;5079024;28;20040;-70
2020/12/21 12:54:36;;;;;;;6.97;2.47;;;7.90;90.10;;;;;;5073101;28;20123;-69
2020/12/21 12:57:02;;;;;;;11.13;3.28;;;8.00;90.10;;;;;;5080117;28;20043;-70
2020/12/21 12:59:27;;;;;;;10.68;2.50;;;8.00;90.40;;;;;;5083434;28;20399;-70